sensor_id;sensor_type;location;lat;lon;timestamp;temperature;humidity
17423;DHT22;8829;47.932;7.810;2023-05-27T00:00:50;15.50;99.90
17423;DHT22;8829;47.932;7.810;2023-05-27T00:03:16;15.50;99.90
17423;DHT22;8829;47.932;7.810;2023-05-27T00:05:43;15.50;99.90
17423;DHT22;8829;47.932;7.810;2023-05-27T00:08:11;15.40;99.90
17423;DHT22;8829;47.932;7.810;2023-05-27T00:10:38;15.30;99.90
17423;DHT22;8829;47.932;7.810;2023-05-27T00:13:05;15.30;99.90
17423;DHT22;8829;47.932;7.810;2023-05-27T00:15:31;15.30;99.90
17423;DHT22;8829;47.932;7.810;2023-05-27T00:17:58;14.90;99.90
17423;DHT22;8829;47.932;7.810;2023-05-27T00:20:27;14.70;99.90
17423;DHT22;8829;47.932;7.810;2023-05-27T00:22:56;14.60;99.90
17423;DHT22;8829;47.932;7.810;2023-05-27T00:25:26;14.50;99.90
17423;DHT22;8829;47.932;7.810;2023-05-27T00:27:54;14.50;99.90
17423;DHT22;8829;47.932;7.810;2023-05-27T00:30:21;14.40;99.90
17423;DHT22;8829;47.932;7.810;2023-05-27T00:32:47;14.40;99.90
17423;DHT22;8829;47.932;7.810;2023-05-27T00:35:14;14.40;99.90
17423;DHT22;8829;47.932;7.810;2023-05-27T00:37:41;14.50;99.90
17423;DHT22;8829;47.932;7.810;2023-05-27T00:40:10;14.60;99.90
17423;DHT22;8829;47.932;7.810;2023-05-27T00:42:38;14.40;99.90
17423;DHT22;8829;47.932;7.810;2023-05-27T00:45:06;14.30;99.90
17423;DHT22;8829;47.932;7.810;2023-05-27T00:47:33;14.20;99.90
17423;DHT22;8829;47.932;7.810;2023-05-27T00:50:01;14.10;99.90
17423;DHT22;8829;47.932;7.810;2023-05-27T00:52:29;14.00;99.90
17423;DHT22;8829;47.932;7.810;2023-05-27T00:54:55;13.80;99.90
17423;DHT22;8829;47.932;7.810;2023-05-27T00:57:23;13.60;99.90
17423;DHT22;8829;47.932;7.810;2023-05-27T00:59:51;13.60;99.90
17423;DHT22;8829;47.932;7.810;2023-05-27T01:02:18;13.40;99.90
17423;DHT22;8829;47.932;7.810;2023-05-27T01:04:46;13.30;99.90
17423;DHT22;8829;47.932;7.810;2023-05-27T01:07:17;13.20;99.90
17423;DHT22;8829;47.932;7.810;2023-05-27T01:09:49;13.20;99.90
17423;DHT22;8829;47.932;7.810;2023-05-27T01:12:25;13.30;99.90
17423;DHT22;8829;47.932;7.810;2023-05-27T01:14:57;13.10;99.90
17423;DHT22;8829;47.932;7.810;2023-05-27T01:17:25;13.20;99.90
17423;DHT22;8829;47.932;7.810;2023-05-27T01:19:54;13.40;99.90
17423;DHT22;8829;47.932;7.810;2023-05-27T01:22:26;13.20;99.90
17423;DHT22;8829;47.932;7.810;2023-05-27T01:24:53;13.20;99.90
17423;DHT22;8829;47.932;7.810;2023-05-27T01:27:19;13.10;99.90
17423;DHT22;8829;47.932;7.810;2023-05-27T01:29:46;13.20;99.90
17423;DHT22;8829;47.932;7.810;2023-05-27T01:32:15;13.10;99.90
17423;DHT22;8829;47.932;7.810;2023-05-27T01:34:46;13.00;99.90
17423;DHT22;8829;47.932;7.810;2023-05-27T01:37:15;13.00;99.90
17423;DHT22;8829;47.932;7.810;2023-05-27T01:39:45;12.90;99.90
17423;DHT22;8829;47.932;7.810;2023-05-27T01:42:13;12.90;99.90
17423;DHT22;8829;47.932;7.810;2023-05-27T01:44:41;12.70;99.90
17423;DHT22;8829;47.932;7.810;2023-05-27T01:47:08;12.60;99.90
17423;DHT22;8829;47.932;7.810;2023-05-27T01:49:35;12.50;99.90
17423;DHT22;8829;47.932;7.810;2023-05-27T01:52:02;12.50;99.90
17423;DHT22;8829;47.932;7.810;2023-05-27T01:54:29;12.50;99.90
17423;DHT22;8829;47.932;7.810;2023-05-27T01:56:57;12.40;99.90
17423;DHT22;8829;47.932;7.810;2023-05-27T01:59:24;12.30;99.90
17423;DHT22;8829;47.932;7.810;2023-05-27T02:01:51;12.30;99.90
17423;DHT22;8829;47.932;7.810;2023-05-27T02:04:18;12.30;99.90
17423;DHT22;8829;47.932;7.810;2023-05-27T02:06:45;12.30;99.90
17423;DHT22;8829;47.932;7.810;2023-05-27T02:09:11;12.30;99.90
17423;DHT22;8829;47.932;7.810;2023-05-27T02:11:39;12.20;99.90
17423;DHT22;8829;47.932;7.810;2023-05-27T02:14:07;12.30;99.90
17423;DHT22;8829;47.932;7.810;2023-05-27T02:16:34;12.30;99.90
17423;DHT22;8829;47.932;7.810;2023-05-27T02:19:02;12.30;99.90
17423;DHT22;8829;47.932;7.810;2023-05-27T02:21:30;12.30;99.90
17423;DHT22;8829;47.932;7.810;2023-05-27T02:23:56;12.10;99.90
17423;DHT22;8829;47.932;7.810;2023-05-27T02:26:23;12.00;99.90
17423;DHT22;8829;47.932;7.810;2023-05-27T02:28:50;12.10;99.90
17423;DHT22;8829;47.932;7.810;2023-05-27T02:31:19;11.90;99.90
17423;DHT22;8829;47.932;7.810;2023-05-27T02:33:46;11.90;99.90
17423;DHT22;8829;47.932;7.810;2023-05-27T02:36:13;11.80;99.90
17423;DHT22;8829;47.932;7.810;2023-05-27T02:38:40;11.80;99.90
17423;DHT22;8829;47.932;7.810;2023-05-27T02:41:07;11.80;99.90
17423;DHT22;8829;47.932;7.810;2023-05-27T02:43:33;11.90;99.90
17423;DHT22;8829;47.932;7.810;2023-05-27T02:46:00;12.00;99.90
17423;DHT22;8829;47.932;7.810;2023-05-27T02:48:28;12.10;99.90
17423;DHT22;8829;47.932;7.810;2023-05-27T02:50:54;12.10;99.90
17423;DHT22;8829;47.932;7.810;2023-05-27T02:53:21;12.00;99.90
17423;DHT22;8829;47.932;7.810;2023-05-27T02:55:49;12.00;99.90
17423;DHT22;8829;47.932;7.810;2023-05-27T02:58:17;11.90;99.90
17423;DHT22;8829;47.932;7.810;2023-05-27T03:00:44;11.80;99.90
17423;DHT22;8829;47.932;7.810;2023-05-27T03:03:10;11.90;99.90
17423;DHT22;8829;47.932;7.810;2023-05-27T03:05:38;11.80;99.90
17423;DHT22;8829;47.932;7.810;2023-05-27T03:08:05;11.70;99.90
17423;DHT22;8829;47.932;7.810;2023-05-27T03:10:32;11.80;99.90
17423;DHT22;8829;47.932;7.810;2023-05-27T03:12:58;11.80;99.90
17423;DHT22;8829;47.932;7.810;2023-05-27T03:15:25;11.70;99.90
17423;DHT22;8829;47.932;7.810;2023-05-27T03:17:55;11.50;99.90
17423;DHT22;8829;47.932;7.810;2023-05-27T03:20:22;11.60;99.90
17423;DHT22;8829;47.932;7.810;2023-05-27T03:22:51;11.60;99.90
17423;DHT22;8829;47.932;7.810;2023-05-27T03:25:17;11.40;99.90
17423;DHT22;8829;47.932;7.810;2023-05-27T03:27:44;11.30;99.90
17423;DHT22;8829;47.932;7.810;2023-05-27T03:30:11;11.30;99.90
17423;DHT22;8829;47.932;7.810;2023-05-27T03:32:37;11.40;99.90
17423;DHT22;8829;47.932;7.810;2023-05-27T03:35:05;11.40;99.90
17423;DHT22;8829;47.932;7.810;2023-05-27T03:37:32;11.30;99.90
17423;DHT22;8829;47.932;7.810;2023-05-27T03:40:00;11.20;99.90
17423;DHT22;8829;47.932;7.810;2023-05-27T03:42:26;11.40;99.90
17423;DHT22;8829;47.932;7.810;2023-05-27T03:44:53;11.50;99.90
17423;DHT22;8829;47.932;7.810;2023-05-27T03:47:20;11.30;99.90
17423;DHT22;8829;47.932;7.810;2023-05-27T03:49:47;11.30;99.90
17423;DHT22;8829;47.932;7.810;2023-05-27T03:52:14;11.40;99.90
17423;DHT22;8829;47.932;7.810;2023-05-27T03:54:41;11.40;99.90
17423;DHT22;8829;47.932;7.810;2023-05-27T03:57:09;11.40;99.90
17423;DHT22;8829;47.932;7.810;2023-05-27T03:59:36;11.40;99.90
17423;DHT22;8829;47.932;7.810;2023-05-27T04:02:03;11.40;99.90
17423;DHT22;8829;47.932;7.810;2023-05-27T04:04:30;11.40;99.90
17423;DHT22;8829;47.932;7.810;2023-05-27T04:06:56;11.40;99.90
17423;DHT22;8829;47.932;7.810;2023-05-27T04:09:23;11.50;99.90
17423;DHT22;8829;47.932;7.810;2023-05-27T04:11:50;11.40;99.90
17423;DHT22;8829;47.932;7.810;2023-05-27T04:14:18;11.40;99.90
17423;DHT22;8829;47.932;7.810;2023-05-27T04:16:45;11.30;99.90
17423;DHT22;8829;47.932;7.810;2023-05-27T04:19:12;11.40;99.90
17423;DHT22;8829;47.932;7.810;2023-05-27T04:21:40;11.50;99.90
17423;DHT22;8829;47.932;7.810;2023-05-27T04:24:07;11.50;99.90
17423;DHT22;8829;47.932;7.810;2023-05-27T04:26:34;11.50;99.90
17423;DHT22;8829;47.932;7.810;2023-05-27T04:29:01;11.60;99.90
17423;DHT22;8829;47.932;7.810;2023-05-27T04:31:29;11.70;99.90
17423;DHT22;8829;47.932;7.810;2023-05-27T04:33:55;11.70;99.90
17423;DHT22;8829;47.932;7.810;2023-05-27T04:36:22;11.80;99.90
17423;DHT22;8829;47.932;7.810;2023-05-27T04:38:50;11.80;99.90
17423;DHT22;8829;47.932;7.810;2023-05-27T04:41:17;11.90;99.90
17423;DHT22;8829;47.932;7.810;2023-05-27T04:43:45;12.00;99.90
17423;DHT22;8829;47.932;7.810;2023-05-27T04:46:13;12.20;99.90
17423;DHT22;8829;47.932;7.810;2023-05-27T04:48:41;12.20;99.90
17423;DHT22;8829;47.932;7.810;2023-05-27T04:51:11;12.40;99.90
17423;DHT22;8829;47.932;7.810;2023-05-27T04:53:41;12.40;99.90
17423;DHT22;8829;47.932;7.810;2023-05-27T04:56:07;12.50;99.90
17423;DHT22;8829;47.932;7.810;2023-05-27T04:58:34;12.50;99.90
17423;DHT22;8829;47.932;7.810;2023-05-27T05:01:02;12.40;99.90
17423;DHT22;8829;47.932;7.810;2023-05-27T05:03:30;12.50;99.90
17423;DHT22;8829;47.932;7.810;2023-05-27T05:06:06;12.50;99.90
17423;DHT22;8829;47.932;7.810;2023-05-27T05:08:33;12.60;99.90
17423;DHT22;8829;47.932;7.810;2023-05-27T05:11:00;12.50;99.90
17423;DHT22;8829;47.932;7.810;2023-05-27T05:13:27;12.60;99.90
17423;DHT22;8829;47.932;7.810;2023-05-27T05:15:55;12.50;99.90
17423;DHT22;8829;47.932;7.810;2023-05-27T05:18:21;12.60;99.90
17423;DHT22;8829;47.932;7.810;2023-05-27T05:20:48;12.50;99.90
17423;DHT22;8829;47.932;7.810;2023-05-27T05:23:16;12.80;99.90
17423;DHT22;8829;47.932;7.810;2023-05-27T05:25:44;13.20;99.90
17423;DHT22;8829;47.932;7.810;2023-05-27T05:28:10;13.80;99.90
17423;DHT22;8829;47.932;7.810;2023-05-27T05:30:37;14.30;99.90
17423;DHT22;8829;47.932;7.810;2023-05-27T05:33:04;15.10;99.90
17423;DHT22;8829;47.932;7.810;2023-05-27T05:35:31;15.80;99.90
17423;DHT22;8829;47.932;7.810;2023-05-27T05:37:57;16.40;99.90
17423;DHT22;8829;47.932;7.810;2023-05-27T05:40:25;17.00;99.90
17423;DHT22;8829;47.932;7.810;2023-05-27T05:42:52;17.30;99.90
17423;DHT22;8829;47.932;7.810;2023-05-27T05:45:19;17.50;99.90
17423;DHT22;8829;47.932;7.810;2023-05-27T05:47:46;17.70;99.90
17423;DHT22;8829;47.932;7.810;2023-05-27T05:50:13;17.90;99.90
17423;DHT22;8829;47.932;7.810;2023-05-27T05:52:40;18.20;99.90
17423;DHT22;8829;47.932;7.810;2023-05-27T05:55:07;18.50;99.90
17423;DHT22;8829;47.932;7.810;2023-05-27T05:57:35;18.80;99.90
17423;DHT22;8829;47.932;7.810;2023-05-27T06:00:02;19.20;99.90
17423;DHT22;8829;47.932;7.810;2023-05-27T06:02:30;19.10;99.90
17423;DHT22;8829;47.932;7.810;2023-05-27T06:04:57;19.20;99.90
17423;DHT22;8829;47.932;7.810;2023-05-27T06:07:23;19.60;99.90
17423;DHT22;8829;47.932;7.810;2023-05-27T06:09:50;20.00;99.90
17423;DHT22;8829;47.932;7.810;2023-05-27T06:12:17;20.00;99.90
17423;DHT22;8829;47.932;7.810;2023-05-27T06:14:45;20.20;99.90
17423;DHT22;8829;47.932;7.810;2023-05-27T06:17:12;20.20;99.90
17423;DHT22;8829;47.932;7.810;2023-05-27T06:19:39;20.20;99.90
17423;DHT22;8829;47.932;7.810;2023-05-27T06:22:06;20.20;99.90
17423;DHT22;8829;47.932;7.810;2023-05-27T06:24:33;20.20;99.90
17423;DHT22;8829;47.932;7.810;2023-05-27T06:26:59;20.50;99.90
17423;DHT22;8829;47.932;7.810;2023-05-27T06:29:27;20.70;99.90
17423;DHT22;8829;47.932;7.810;2023-05-27T06:31:55;21.00;99.90
17423;DHT22;8829;47.932;7.810;2023-05-27T06:34:22;21.10;99.90
17423;DHT22;8829;47.932;7.810;2023-05-27T06:36:51;21.20;99.90
17423;DHT22;8829;47.932;7.810;2023-05-27T06:39:18;21.40;99.90
17423;DHT22;8829;47.932;7.810;2023-05-27T06:41:46;21.60;99.90
17423;DHT22;8829;47.932;7.810;2023-05-27T06:44:13;21.80;99.90
17423;DHT22;8829;47.932;7.810;2023-05-27T06:46:39;22.00;99.90
17423;DHT22;8829;47.932;7.810;2023-05-27T06:49:08;21.70;99.90
17423;DHT22;8829;47.932;7.810;2023-05-27T06:51:35;21.70;99.90
17423;DHT22;8829;47.932;7.810;2023-05-27T06:54:01;21.90;99.90
17423;DHT22;8829;47.932;7.810;2023-05-27T06:56:28;22.20;99.90
17423;DHT22;8829;47.932;7.810;2023-05-27T06:58:55;22.50;99.90
17423;DHT22;8829;47.932;7.810;2023-05-27T07:01:22;22.40;99.90
17423;DHT22;8829;47.932;7.810;2023-05-27T07:03:49;20.50;99.90
17423;DHT22;8829;47.932;7.810;2023-05-27T07:06:17;19.80;99.90
17423;DHT22;8829;47.932;7.810;2023-05-27T07:08:44;19.40;99.90
17423;DHT22;8829;47.932;7.810;2023-05-27T07:11:10;19.50;99.90
17423;DHT22;8829;47.932;7.810;2023-05-27T07:13:37;20.10;99.90
17423;DHT22;8829;47.932;7.810;2023-05-27T07:16:04;19.30;99.90
17423;DHT22;8829;47.932;7.810;2023-05-27T07:18:31;18.00;99.90
17423;DHT22;8829;47.932;7.810;2023-05-27T07:20:57;17.30;99.90
17423;DHT22;8829;47.932;7.810;2023-05-27T07:23:25;17.00;99.90
17423;DHT22;8829;47.932;7.810;2023-05-27T07:25:52;17.70;99.90
17423;DHT22;8829;47.932;7.810;2023-05-27T07:28:19;18.10;99.90
17423;DHT22;8829;47.932;7.810;2023-05-27T07:30:45;18.60;99.90
17423;DHT22;8829;47.932;7.810;2023-05-27T07:33:13;19.70;99.90
17423;DHT22;8829;47.932;7.810;2023-05-27T07:35:40;20.20;99.90
17423;DHT22;8829;47.932;7.810;2023-05-27T07:38:07;20.50;99.90
17423;DHT22;8829;47.932;7.810;2023-05-27T07:40:35;21.10;99.90
17423;DHT22;8829;47.932;7.810;2023-05-27T07:43:01;20.50;99.90
17423;DHT22;8829;47.932;7.810;2023-05-27T07:45:28;20.80;99.90
17423;DHT22;8829;47.932;7.810;2023-05-27T07:47:55;20.00;99.90
17423;DHT22;8829;47.932;7.810;2023-05-27T07:50:22;19.30;99.90
17423;DHT22;8829;47.932;7.810;2023-05-27T07:52:49;18.70;99.90
17423;DHT22;8829;47.932;7.810;2023-05-27T07:55:16;19.30;99.90
17423;DHT22;8829;47.932;7.810;2023-05-27T07:57:44;20.50;99.90
17423;DHT22;8829;47.932;7.810;2023-05-27T08:00:11;21.40;99.90
17423;DHT22;8829;47.932;7.810;2023-05-27T08:02:38;21.70;99.90
17423;DHT22;8829;47.932;7.810;2023-05-27T08:05:05;22.50;99.90
17423;DHT22;8829;47.932;7.810;2023-05-27T08:07:31;22.80;99.90
17423;DHT22;8829;47.932;7.810;2023-05-27T08:09:58;22.90;99.90
17423;DHT22;8829;47.932;7.810;2023-05-27T08:12:25;22.40;99.90
17423;DHT22;8829;47.932;7.810;2023-05-27T08:14:53;22.70;99.90
17423;DHT22;8829;47.932;7.810;2023-05-27T08:17:19;21.70;99.90
17423;DHT22;8829;47.932;7.810;2023-05-27T08:19:46;21.00;99.90
17423;DHT22;8829;47.932;7.810;2023-05-27T08:22:13;20.40;99.90
17423;DHT22;8829;47.932;7.810;2023-05-27T08:24:40;20.40;99.90
17423;DHT22;8829;47.932;7.810;2023-05-27T08:27:14;20.70;99.90
17423;DHT22;8829;47.932;7.810;2023-05-27T08:29:41;21.50;99.90
17423;DHT22;8829;47.932;7.810;2023-05-27T08:32:09;21.00;99.90
17423;DHT22;8829;47.932;7.810;2023-05-27T08:34:36;21.30;99.90
17423;DHT22;8829;47.932;7.810;2023-05-27T08:37:05;21.20;99.90
17423;DHT22;8829;47.932;7.810;2023-05-27T08:39:32;21.10;99.90
17423;DHT22;8829;47.932;7.810;2023-05-27T08:41:59;20.90;99.90
17423;DHT22;8829;47.932;7.810;2023-05-27T08:44:27;21.10;99.90
17423;DHT22;8829;47.932;7.810;2023-05-27T08:46:55;21.90;99.90
17423;DHT22;8829;47.932;7.810;2023-05-27T08:49:23;22.10;99.90
17423;DHT22;8829;47.932;7.810;2023-05-27T08:51:50;23.00;99.90
17423;DHT22;8829;47.932;7.810;2023-05-27T08:54:17;23.00;99.90
17423;DHT22;8829;47.932;7.810;2023-05-27T08:56:45;23.00;99.90
17423;DHT22;8829;47.932;7.810;2023-05-27T08:59:13;22.30;99.90
17423;DHT22;8829;47.932;7.810;2023-05-27T09:01:40;21.40;99.90
17423;DHT22;8829;47.932;7.810;2023-05-27T09:04:08;21.30;99.90
17423;DHT22;8829;47.932;7.810;2023-05-27T09:06:36;21.40;99.90
17423;DHT22;8829;47.932;7.810;2023-05-27T09:09:03;20.50;99.90
17423;DHT22;8829;47.932;7.810;2023-05-27T09:11:29;20.50;99.90
17423;DHT22;8829;47.932;7.810;2023-05-27T09:14:00;20.40;99.90
17423;DHT22;8829;47.932;7.810;2023-05-27T09:16:27;20.20;99.90
17423;DHT22;8829;47.932;7.810;2023-05-27T09:18:54;20.10;99.90
17423;DHT22;8829;47.932;7.810;2023-05-27T09:21:20;19.80;99.90
17423;DHT22;8829;47.932;7.810;2023-05-27T09:23:48;19.30;99.90
17423;DHT22;8829;47.932;7.810;2023-05-27T09:26:15;18.90;99.90
17423;DHT22;8829;47.932;7.810;2023-05-27T09:28:42;19.00;99.90
17423;DHT22;8829;47.932;7.810;2023-05-27T09:31:09;19.20;99.90
17423;DHT22;8829;47.932;7.810;2023-05-27T09:33:37;19.40;99.90
17423;DHT22;8829;47.932;7.810;2023-05-27T09:36:06;19.40;99.90
17423;DHT22;8829;47.932;7.810;2023-05-27T09:38:35;19.70;99.90
17423;DHT22;8829;47.932;7.810;2023-05-27T09:41:03;19.80;99.90
17423;DHT22;8829;47.932;7.810;2023-05-27T09:43:30;20.10;99.90
17423;DHT22;8829;47.932;7.810;2023-05-27T09:45:59;20.50;99.90
17423;DHT22;8829;47.932;7.810;2023-05-27T09:48:28;20.20;99.90
17423;DHT22;8829;47.932;7.810;2023-05-27T09:50:56;20.00;99.90
17423;DHT22;8829;47.932;7.810;2023-05-27T09:53:23;20.00;99.90
17423;DHT22;8829;47.932;7.810;2023-05-27T09:55:52;20.20;99.90
17423;DHT22;8829;47.932;7.810;2023-05-27T09:58:20;20.20;99.90
17423;DHT22;8829;47.932;7.810;2023-05-27T10:00:47;19.80;99.90
17423;DHT22;8829;47.932;7.810;2023-05-27T10:03:14;19.90;99.90
17423;DHT22;8829;47.932;7.810;2023-05-27T10:05:42;19.90;99.90
17423;DHT22;8829;47.932;7.810;2023-05-27T10:08:09;20.00;99.90
17423;DHT22;8829;47.932;7.810;2023-05-27T10:10:37;19.90;99.90
17423;DHT22;8829;47.932;7.810;2023-05-27T10:13:04;20.00;99.90
17423;DHT22;8829;47.932;7.810;2023-05-27T10:15:33;20.10;99.90
17423;DHT22;8829;47.932;7.810;2023-05-27T10:18:03;20.50;99.90
17423;DHT22;8829;47.932;7.810;2023-05-27T10:20:32;20.50;99.90
17423;DHT22;8829;47.932;7.810;2023-05-27T10:23:10;20.70;99.90
17423;DHT22;8829;47.932;7.810;2023-05-27T10:25:38;20.70;99.90
17423;DHT22;8829;47.932;7.810;2023-05-27T10:28:05;20.50;99.90
17423;DHT22;8829;47.932;7.810;2023-05-27T10:30:44;20.70;99.90
17423;DHT22;8829;47.932;7.810;2023-05-27T10:33:11;21.00;99.90
17423;DHT22;8829;47.932;7.810;2023-05-27T10:35:41;20.80;99.90
17423;DHT22;8829;47.932;7.810;2023-05-27T10:38:15;20.90;99.90
17423;DHT22;8829;47.932;7.810;2023-05-27T10:40:44;20.90;99.90
17423;DHT22;8829;47.932;7.810;2023-05-27T10:43:18;21.00;99.90
17423;DHT22;8829;47.932;7.810;2023-05-27T10:45:46;21.00;99.90
17423;DHT22;8829;47.932;7.810;2023-05-27T10:48:18;21.00;99.90
17423;DHT22;8829;47.932;7.810;2023-05-27T10:50:51;21.20;99.90
17423;DHT22;8829;47.932;7.810;2023-05-27T10:53:19;21.10;99.90
17423;DHT22;8829;47.932;7.810;2023-05-27T10:55:47;21.30;99.90
17423;DHT22;8829;47.932;7.810;2023-05-27T10:58:16;21.60;99.90
17423;DHT22;8829;47.932;7.810;2023-05-27T11:00:45;21.80;99.90
17423;DHT22;8829;47.932;7.810;2023-05-27T11:03:18;21.70;99.90
17423;DHT22;8829;47.932;7.810;2023-05-27T11:05:46;21.40;99.90
17423;DHT22;8829;47.932;7.810;2023-05-27T11:08:13;21.60;99.90
17423;DHT22;8829;47.932;7.810;2023-05-27T11:10:40;21.80;99.90
17423;DHT22;8829;47.932;7.810;2023-05-27T11:13:07;21.70;99.90
17423;DHT22;8829;47.932;7.810;2023-05-27T11:15:34;21.50;99.90
17423;DHT22;8829;47.932;7.810;2023-05-27T11:18:03;21.60;99.90
17423;DHT22;8829;47.932;7.810;2023-05-27T11:20:36;21.80;99.90
17423;DHT22;8829;47.932;7.810;2023-05-27T11:23:03;21.80;99.90
17423;DHT22;8829;47.932;7.810;2023-05-27T11:25:41;21.70;99.90
17423;DHT22;8829;47.932;7.810;2023-05-27T11:28:13;21.50;99.90
17423;DHT22;8829;47.932;7.810;2023-05-27T11:30:41;21.50;99.90
17423;DHT22;8829;47.932;7.810;2023-05-27T11:33:09;21.30;99.90
17423;DHT22;8829;47.932;7.810;2023-05-27T11:35:35;21.60;99.90
17423;DHT22;8829;47.932;7.810;2023-05-27T11:38:02;21.80;99.90
17423;DHT22;8829;47.932;7.810;2023-05-27T11:40:34;21.80;99.90
17423;DHT22;8829;47.932;7.810;2023-05-27T11:43:00;21.70;99.90
17423;DHT22;8829;47.932;7.810;2023-05-27T11:45:27;21.90;99.90
17423;DHT22;8829;47.932;7.810;2023-05-27T11:47:55;22.10;99.90
17423;DHT22;8829;47.932;7.810;2023-05-27T11:50:24;22.10;99.90
17423;DHT22;8829;47.932;7.810;2023-05-27T11:52:53;21.90;99.90
17423;DHT22;8829;47.932;7.810;2023-05-27T11:55:20;22.00;99.90
17423;DHT22;8829;47.932;7.810;2023-05-27T11:57:47;22.10;99.90
17423;DHT22;8829;47.932;7.810;2023-05-27T12:00:15;22.30;99.90
17423;DHT22;8829;47.932;7.810;2023-05-27T12:02:43;22.50;99.90
17423;DHT22;8829;47.932;7.810;2023-05-27T12:05:10;22.50;99.90
17423;DHT22;8829;47.932;7.810;2023-05-27T12:07:38;22.40;99.90
17423;DHT22;8829;47.932;7.810;2023-05-27T12:10:07;22.40;99.90
17423;DHT22;8829;47.932;7.810;2023-05-27T12:12:34;22.50;99.90
17423;DHT22;8829;47.932;7.810;2023-05-27T12:15:00;22.40;99.90
17423;DHT22;8829;47.932;7.810;2023-05-27T12:17:27;22.70;99.90
17423;DHT22;8829;47.932;7.810;2023-05-27T12:19:54;22.50;99.90
17423;DHT22;8829;47.932;7.810;2023-05-27T12:22:21;22.80;99.90
17423;DHT22;8829;47.932;7.810;2023-05-27T12:24:50;22.70;99.90
17423;DHT22;8829;47.932;7.810;2023-05-27T12:27:18;22.80;99.90
17423;DHT22;8829;47.932;7.810;2023-05-27T12:29:45;22.90;99.90
17423;DHT22;8829;47.932;7.810;2023-05-27T12:32:13;23.10;99.90
17423;DHT22;8829;47.932;7.810;2023-05-27T12:34:40;23.00;99.90
17423;DHT22;8829;47.932;7.810;2023-05-27T12:37:06;23.20;99.90
17423;DHT22;8829;47.932;7.810;2023-05-27T12:39:33;23.30;99.90
17423;DHT22;8829;47.932;7.810;2023-05-27T12:42:01;23.30;99.90
17423;DHT22;8829;47.932;7.810;2023-05-27T12:44:28;23.50;99.90
17423;DHT22;8829;47.932;7.810;2023-05-27T12:46:55;23.60;99.90
17423;DHT22;8829;47.932;7.810;2023-05-27T12:49:21;23.80;99.90
17423;DHT22;8829;47.932;7.810;2023-05-27T12:51:48;23.80;99.90
17423;DHT22;8829;47.932;7.810;2023-05-27T12:54:15;23.70;99.90
17423;DHT22;8829;47.932;7.810;2023-05-27T12:56:41;23.80;99.90
17423;DHT22;8829;47.932;7.810;2023-05-27T12:59:10;23.80;99.90
17423;DHT22;8829;47.932;7.810;2023-05-27T13:01:37;23.90;99.90
17423;DHT22;8829;47.932;7.810;2023-05-27T13:04:03;23.70;99.90
17423;DHT22;8829;47.932;7.810;2023-05-27T13:06:30;23.60;99.90
17423;DHT22;8829;47.932;7.810;2023-05-27T13:08:57;23.70;99.90
17423;DHT22;8829;47.932;7.810;2023-05-27T13:11:23;23.70;99.90
17423;DHT22;8829;47.932;7.810;2023-05-27T13:13:51;23.80;99.90
17423;DHT22;8829;47.932;7.810;2023-05-27T13:16:19;23.80;99.90
17423;DHT22;8829;47.932;7.810;2023-05-27T13:18:46;23.70;99.90
17423;DHT22;8829;47.932;7.810;2023-05-27T13:21:13;23.70;99.90
17423;DHT22;8829;47.932;7.810;2023-05-27T13:23:40;23.60;99.90
17423;DHT22;8829;47.932;7.810;2023-05-27T13:26:07;23.60;99.90
17423;DHT22;8829;47.932;7.810;2023-05-27T13:28:33;23.60;99.90
17423;DHT22;8829;47.932;7.810;2023-05-27T13:31:00;23.70;99.90
17423;DHT22;8829;47.932;7.810;2023-05-27T13:33:30;23.50;99.90
17423;DHT22;8829;47.932;7.810;2023-05-27T13:35:57;23.60;99.90
17423;DHT22;8829;47.932;7.810;2023-05-27T13:38:23;23.70;99.90
17423;DHT22;8829;47.932;7.810;2023-05-27T13:40:50;23.80;99.90
17423;DHT22;8829;47.932;7.810;2023-05-27T13:43:17;23.70;99.90
17423;DHT22;8829;47.932;7.810;2023-05-27T13:45:44;23.80;99.90
17423;DHT22;8829;47.932;7.810;2023-05-27T13:48:10;23.70;99.90
17423;DHT22;8829;47.932;7.810;2023-05-27T13:50:39;23.80;99.90
17423;DHT22;8829;47.932;7.810;2023-05-27T13:53:05;23.80;99.90
17423;DHT22;8829;47.932;7.810;2023-05-27T13:55:32;23.70;99.90
17423;DHT22;8829;47.932;7.810;2023-05-27T13:57:59;23.50;99.90
17423;DHT22;8829;47.932;7.810;2023-05-27T14:00:26;23.60;99.90
17423;DHT22;8829;47.932;7.810;2023-05-27T14:02:55;23.80;99.90
17423;DHT22;8829;47.932;7.810;2023-05-27T14:05:23;23.90;99.90
17423;DHT22;8829;47.932;7.810;2023-05-27T14:07:52;24.00;99.90
17423;DHT22;8829;47.932;7.810;2023-05-27T14:10:19;24.10;99.90
17423;DHT22;8829;47.932;7.810;2023-05-27T14:12:46;24.00;99.90
17423;DHT22;8829;47.932;7.810;2023-05-27T14:15:13;24.10;99.90
17423;DHT22;8829;47.932;7.810;2023-05-27T14:17:40;24.00;99.90
17423;DHT22;8829;47.932;7.810;2023-05-27T14:20:07;23.90;99.90
17423;DHT22;8829;47.932;7.810;2023-05-27T14:22:35;24.00;99.90
17423;DHT22;8829;47.932;7.810;2023-05-27T14:25:05;24.00;99.90
17423;DHT22;8829;47.932;7.810;2023-05-27T14:27:32;24.10;99.90
17423;DHT22;8829;47.932;7.810;2023-05-27T14:29:59;24.10;99.90
17423;DHT22;8829;47.932;7.810;2023-05-27T14:32:27;23.90;99.90
17423;DHT22;8829;47.932;7.810;2023-05-27T14:34:53;23.90;99.90
17423;DHT22;8829;47.932;7.810;2023-05-27T14:37:21;24.00;99.90
17423;DHT22;8829;47.932;7.810;2023-05-27T14:39:50;24.00;99.90
17423;DHT22;8829;47.932;7.810;2023-05-27T14:42:18;24.00;99.90
17423;DHT22;8829;47.932;7.810;2023-05-27T14:44:45;24.10;99.90
17423;DHT22;8829;47.932;7.810;2023-05-27T14:47:12;24.20;99.90
17423;DHT22;8829;47.932;7.810;2023-05-27T14:49:38;24.20;99.90
17423;DHT22;8829;47.932;7.810;2023-05-27T14:52:05;24.20;99.90
17423;DHT22;8829;47.932;7.810;2023-05-27T14:54:32;24.20;99.90
17423;DHT22;8829;47.932;7.810;2023-05-27T14:56:59;24.20;99.90
17423;DHT22;8829;47.932;7.810;2023-05-27T14:59:27;24.20;99.90
17423;DHT22;8829;47.932;7.810;2023-05-27T15:01:53;24.10;99.90
17423;DHT22;8829;47.932;7.810;2023-05-27T15:04:20;24.10;99.90
17423;DHT22;8829;47.932;7.810;2023-05-27T15:06:47;24.20;99.90
17423;DHT22;8829;47.932;7.810;2023-05-27T15:09:13;24.20;99.90
17423;DHT22;8829;47.932;7.810;2023-05-27T15:11:40;24.30;99.90
17423;DHT22;8829;47.932;7.810;2023-05-27T15:14:08;24.30;99.90
17423;DHT22;8829;47.932;7.810;2023-05-27T15:16:36;24.20;99.90
17423;DHT22;8829;47.932;7.810;2023-05-27T15:19:03;24.10;99.90
17423;DHT22;8829;47.932;7.810;2023-05-27T15:21:30;24.10;99.90
17423;DHT22;8829;47.932;7.810;2023-05-27T15:23:56;24.20;99.90
17423;DHT22;8829;47.932;7.810;2023-05-27T15:26:23;24.10;99.90
17423;DHT22;8829;47.932;7.810;2023-05-27T15:28:51;24.20;99.90
17423;DHT22;8829;47.932;7.810;2023-05-27T15:31:18;24.20;99.90
17423;DHT22;8829;47.932;7.810;2023-05-27T15:33:46;24.20;99.90
17423;DHT22;8829;47.932;7.810;2023-05-27T15:36:13;24.10;99.90
17423;DHT22;8829;47.932;7.810;2023-05-27T15:38:40;23.90;99.90
17423;DHT22;8829;47.932;7.810;2023-05-27T15:41:07;24.00;99.90
17423;DHT22;8829;47.932;7.810;2023-05-27T15:43:33;24.10;99.90
17423;DHT22;8829;47.932;7.810;2023-05-27T15:46:00;24.10;99.90